createdAt,value
2016-05-10T00:00:46.642Z,1007.12
2016-05-10T00:01:46.629Z,1007.14
2016-05-10T00:02:46.616Z,1007.17
2016-05-10T00:03:46.604Z,1007.13
2016-05-10T00:04:46.591Z,1007.18
2016-05-10T00:05:46.577Z,1007.1
2016-05-10T00:06:46.565Z,1007.1
2016-05-10T00:07:46.552Z,1007.1
2016-05-10T00:08:46.538Z,1007.07
2016-05-10T00:09:46.541Z,1007.09
2016-05-10T00:10:46.529Z,1007.07
2016-05-10T00:11:46.501Z,1007.09
2016-05-10T00:12:46.530Z,1007.09
2016-05-10T00:13:46.558Z,1007.05
2016-05-10T00:14:46.680Z,1007.08
2016-05-10T00:15:46.615Z,1007.07
2016-05-10T00:16:46.643Z,1007.12
2016-05-10T00:17:46.653Z,1007.11
2016-05-10T00:18:46.655Z,1007.07
2016-05-10T00:19:46.672Z,1007.08
2016-05-10T00:20:46.659Z,1007.09
2016-05-10T00:21:46.676Z,1007.1
2016-05-10T00:22:46.858Z,1007.13
2016-05-10T00:23:46.663Z,1007.06
2016-05-10T00:24:46.657Z,1007.06
2016-05-10T00:25:46.648Z,1007.05
2016-05-10T00:26:46.640Z,1007.07
2016-05-10T00:27:46.631Z,1007.09
2016-05-10T00:28:46.636Z,1007.03
2016-05-10T00:29:46.610Z,1007.02
2016-05-10T00:30:46.957Z,1007.07
2016-05-10T00:31:46.587Z,1007.03
2016-05-10T00:32:46.590Z,1007.02
2016-05-10T00:33:46.563Z,1007.05
2016-05-10T00:34:46.566Z,1007.03
2016-05-10T00:35:46.554Z,1007.02
2016-05-10T00:36:46.542Z,1007
2016-05-10T00:37:46.529Z,1006.98
2016-05-10T00:38:46.971Z,1006.97
2016-05-10T00:39:46.504Z,1006.94
2016-05-10T00:40:46.491Z,1006.96
2016-05-10T00:41:46.479Z,1006.95
2016-05-10T00:42:46.466Z,1006.98
2016-05-10T00:43:46.453Z,1006.97
2016-05-10T00:44:46.455Z,1006.96
2016-05-10T00:45:46.428Z,1006.95
2016-05-10T00:46:46.930Z,1006.95
2016-05-10T00:47:46.418Z,1006.94
2016-05-10T00:48:46.405Z,1006.9
2016-05-10T00:49:46.391Z,1006.93
2016-05-10T00:50:46.379Z,1006.93
2016-05-10T00:51:46.365Z,1006.9
2016-05-10T00:52:46.352Z,1006.89
2016-05-10T00:53:46.340Z,1006.88
2016-05-10T00:54:47.077Z,1006.88
2016-05-10T00:55:46.330Z,1006.91
2016-05-10T00:56:46.301Z,1006.89
2016-05-10T00:57:46.304Z,1006.85
2016-05-10T00:58:46.290Z,1006.85
2016-05-10T00:59:46.653Z,1006.81
2016-05-10T01:00:46.265Z,1006.82
2016-05-10T01:01:46.251Z,1006.82
2016-05-10T01:02:46.239Z,1006.8
2016-05-10T01:03:46.242Z,1006.79
2016-05-10T01:04:46.229Z,1006.8
2016-05-10T01:05:46.200Z,1006.71
2016-05-10T01:06:46.187Z,1006.76
2016-05-10T01:07:46.175Z,1006.72
2016-05-10T01:08:46.177Z,1006.73
2016-05-10T01:09:46.148Z,1006.7
2016-05-10T01:10:47.042Z,1006.74
2016-05-10T01:11:46.138Z,1006.69
2016-05-10T01:12:46.125Z,1006.68
2016-05-10T01:13:46.113Z,1006.71
2016-05-10T01:14:46.459Z,1006.68
2016-05-10T01:15:46.086Z,1006.74
2016-05-10T01:16:46.074Z,1006.68
2016-05-10T01:17:46.061Z,1006.68
2016-05-10T01:18:46.251Z,1006.66
2016-05-10T01:19:46.035Z,1006.72
2016-05-10T01:20:46.038Z,1006.69
2016-05-10T01:21:46.009Z,1006.64
2016-05-10T01:22:46.012Z,1006.67
2016-05-10T01:23:45.999Z,1006.65
2016-05-10T01:24:45.986Z,1006.66
2016-05-10T01:25:45.973Z,1006.66
2016-05-10T01:26:46.257Z,1006.65
2016-05-10T01:27:45.946Z,1006.66
2016-05-10T01:28:45.934Z,1006.66
2016-05-10T01:29:45.921Z,1006.65
2016-05-10T01:30:45.908Z,1006.61
2016-05-10T01:31:45.895Z,1006.58
2016-05-10T01:32:45.882Z,1006.56
2016-05-10T01:33:45.885Z,1006.51
2016-05-10T01:34:46.262Z,1006.54
2016-05-10T01:35:45.859Z,1006.5
2016-05-10T01:36:45.846Z,1006.56
2016-05-10T01:37:45.833Z,1006.52
2016-05-10T01:38:45.820Z,1006.52
2016-05-10T01:39:45.808Z,1006.54
2016-05-10T01:40:45.795Z,1006.47
2016-05-10T01:41:45.781Z,1006.5
2016-05-10T01:42:45.769Z,1006.46
2016-05-10T01:43:45.755Z,1006.46
2016-05-10T01:44:45.742Z,1006.49
2016-05-10T01:45:45.730Z,1006.47
2016-05-10T01:46:45.717Z,1006.47
2016-05-10T01:47:45.705Z,1006.48
2016-05-10T01:48:45.691Z,1006.45
2016-05-10T01:49:45.693Z,1006.43
2016-05-10T01:50:45.680Z,1006.42
2016-05-10T01:51:45.668Z,1006.41
2016-05-10T01:52:45.655Z,1006.42
2016-05-10T01:53:45.642Z,1006.43
2016-05-10T01:54:45.629Z,1006.41
2016-05-10T01:55:45.616Z,1006.4
2016-05-10T01:56:45.603Z,1006.37
2016-05-10T01:57:45.591Z,1006.38
2016-05-10T01:58:45.577Z,1006.38
2016-05-10T01:59:45.565Z,1006.33
2016-05-10T02:00:45.551Z,1006.33
2016-05-10T02:01:45.554Z,1006.32
2016-05-10T02:02:45.540Z,1006.31
2016-05-10T02:03:45.528Z,1006.34
2016-05-10T02:04:45.515Z,1006.31
2016-05-10T02:05:45.503Z,1006.28
2016-05-10T02:06:45.490Z,1006.26
2016-05-10T02:07:45.476Z,1006.25
2016-05-10T02:08:45.463Z,1006.27
2016-05-10T02:09:45.450Z,1006.34
2016-05-10T02:10:45.437Z,1006.25
2016-05-10T02:11:45.425Z,1006.23
2016-05-10T02:12:45.428Z,1006.24
2016-05-10T02:13:45.414Z,1006.27
2016-05-10T02:14:45.480Z,1006.23
2016-05-10T02:15:45.388Z,1006.28
2016-05-10T02:16:45.375Z,1006.24
2016-05-10T02:17:45.363Z,1006.23
2016-05-10T02:18:45.350Z,1006.25
2016-05-10T02:19:45.336Z,1006.3
2016-05-10T02:20:45.324Z,1006.28
2016-05-10T02:21:45.311Z,1006.26
2016-05-10T02:22:45.298Z,1006.23
2016-05-10T02:23:45.285Z,1006.28
2016-05-10T02:24:45.272Z,1006.3
2016-05-10T02:25:45.260Z,1006.28
2016-05-10T02:26:45.262Z,1006.27
2016-05-10T02:27:45.249Z,1006.29
2016-05-10T02:28:45.236Z,1006.26
2016-05-10T02:29:45.223Z,1006.24
2016-05-10T02:30:45.210Z,1006.2
2016-05-10T02:31:45.197Z,1006.2
2016-05-10T02:32:45.184Z,1006.18
2016-05-10T02:33:45.171Z,1006.21
2016-05-10T02:34:45.159Z,1006.21
2016-05-10T02:35:45.146Z,1006.18
2016-05-10T02:36:45.132Z,1006.23
2016-05-10T02:37:45.134Z,1006.22
2016-05-10T02:38:45.106Z,1006.24
2016-05-10T02:39:45.094Z,1006.18
2016-05-10T02:40:45.097Z,1006.19
2016-05-10T02:41:45.084Z,1006.19
2016-05-10T02:42:45.070Z,1006.16
2016-05-10T02:43:45.058Z,1006.18
2016-05-10T02:44:45.372Z,1006.17
2016-05-10T02:45:45.032Z,1006.16
2016-05-10T02:46:45.019Z,1006.15
2016-05-10T02:47:45.005Z,1006.12
2016-05-10T02:48:44.994Z,1006.14
2016-05-10T02:49:44.980Z,1006.09
2016-05-10T02:50:44.982Z,1006.12
2016-05-10T02:51:44.970Z,1006.04
2016-05-10T02:52:44.941Z,1006.05
2016-05-10T02:53:44.928Z,1006.12
2016-05-10T02:54:44.916Z,1006.04
2016-05-10T02:55:44.918Z,1006.04
2016-05-10T02:56:44.905Z,1006.02
2016-05-10T02:57:44.876Z,1006.03
2016-05-10T02:58:44.879Z,1006.01
2016-05-10T02:59:44.866Z,1005.98
2016-05-10T03:00:44.853Z,1006.01
2016-05-10T03:01:44.841Z,1006.01
2016-05-10T03:02:44.827Z,1006.01
2016-05-10T03:03:44.815Z,1005.98
2016-05-10T03:04:44.801Z,1006
2016-05-10T03:05:44.789Z,1006
2016-05-10T03:06:44.792Z,1006.04
2016-05-10T03:07:44.778Z,1006.05
2016-05-10T03:08:44.750Z,1006.01
2016-05-10T03:09:44.737Z,1006
2016-05-10T03:10:44.739Z,1006
2016-05-10T03:11:44.726Z,1006.01
2016-05-10T03:12:44.714Z,1005.98
2016-05-10T03:13:44.701Z,1006.02
2016-05-10T03:14:44.688Z,1005.99
2016-05-10T03:15:44.675Z,1006.04
2016-05-10T03:16:44.661Z,1006.01
2016-05-10T03:17:44.650Z,1006.01
2016-05-10T03:18:44.636Z,1005.98
2016-05-10T03:19:44.622Z,1005.96
2016-05-10T03:20:44.611Z,1005.95
2016-05-10T03:21:44.597Z,1006
2016-05-10T03:22:44.599Z,1005.96
2016-05-10T03:23:44.571Z,1005.97
2016-05-10T03:24:44.558Z,1005.95
2016-05-10T03:25:44.561Z,1005.91
2016-05-10T03:26:44.549Z,1005.91
2016-05-10T03:27:44.535Z,1005.97
2016-05-10T03:28:44.522Z,1006
2016-05-10T03:29:44.510Z,1005.97
2016-05-10T03:30:44.496Z,1005.97
2016-05-10T03:31:44.484Z,1005.97
2016-05-10T03:32:44.471Z,1005.92
2016-05-10T03:33:44.457Z,1005.96
2016-05-10T03:34:44.445Z,1005.92
2016-05-10T03:35:44.432Z,1005.93
2016-05-10T03:36:44.434Z,1005.93
2016-05-10T03:37:44.422Z,1005.93
2016-05-10T03:38:44.392Z,1005.95
2016-05-10T03:39:44.395Z,1005.95
2016-05-10T03:40:44.367Z,1005.9
2016-05-10T03:41:44.354Z,1005.92
2016-05-10T03:42:44.357Z,1005.9
2016-05-10T03:43:44.344Z,1005.88
2016-05-10T03:44:44.831Z,1005.85
2016-05-10T03:45:44.318Z,1005.84
2016-05-10T03:46:44.305Z,1005.88
2016-05-10T03:47:44.292Z,1005.84
2016-05-10T03:48:44.280Z,1005.85
2016-05-10T03:49:44.267Z,1005.88
2016-05-10T03:50:44.269Z,1005.83
2016-05-10T03:51:44.240Z,1005.83
2016-05-10T03:52:44.243Z,1005.8
2016-05-10T03:53:44.214Z,1005.83
2016-05-10T03:54:44.217Z,1005.81
2016-05-10T03:55:44.205Z,1005.81
2016-05-10T03:56:44.192Z,1005.82
2016-05-10T03:57:44.179Z,1005.81
2016-05-10T03:58:44.165Z,1005.81
2016-05-10T03:59:44.168Z,1005.79
2016-05-10T04:00:44.140Z,1005.78
2016-05-10T04:01:44.127Z,1005.79
2016-05-10T04:02:44.129Z,1005.77
2016-05-10T04:03:44.101Z,1005.79
2016-05-10T04:04:44.087Z,1005.74
2016-05-10T04:05:44.090Z,1005.77
2016-05-10T04:06:44.078Z,1005.77
2016-05-10T04:07:44.049Z,1005.75
2016-05-10T04:08:44.052Z,1005.75
2016-05-10T04:09:44.039Z,1005.7
2016-05-10T04:10:44.026Z,1005.7
2016-05-10T04:11:44.013Z,1005.71
2016-05-10T04:12:44.000Z,1005.72
2016-05-10T04:13:43.987Z,1005.68
2016-05-10T04:14:43.975Z,1005.69
2016-05-10T04:15:43.961Z,1005.67
2016-05-10T04:16:43.948Z,1005.67
2016-05-10T04:17:43.936Z,1005.63
2016-05-10T04:18:43.922Z,1005.66
2016-05-10T04:19:43.909Z,1005.66
2016-05-10T04:20:43.896Z,1005.66
2016-05-10T04:21:43.883Z,1005.62
2016-05-10T04:22:43.871Z,1005.61
2016-05-10T04:23:43.874Z,1005.67
2016-05-10T04:24:43.861Z,1005.62
2016-05-10T04:25:43.833Z,1005.64
2016-05-10T04:26:43.835Z,1005.66
2016-05-10T04:27:43.821Z,1005.66
2016-05-10T04:28:43.808Z,1005.7
2016-05-10T04:29:43.796Z,1005.61
2016-05-10T04:30:43.783Z,1005.64
2016-05-10T04:31:43.771Z,1005.66
2016-05-10T04:32:43.757Z,1005.67
2016-05-10T04:33:43.743Z,1005.65
2016-05-10T04:34:43.732Z,1005.61
2016-05-10T04:35:43.718Z,1005.63
2016-05-10T04:36:43.705Z,1005.62
2016-05-10T04:37:43.693Z,1005.67
2016-05-10T04:38:43.695Z,1005.62
2016-05-10T04:39:43.667Z,1005.62
2016-05-10T04:40:43.669Z,1005.67
2016-05-10T04:41:43.656Z,1005.64
2016-05-10T04:42:43.643Z,1005.65
2016-05-10T04:43:43.631Z,1005.6
2016-05-10T04:44:44.274Z,1005.6
2016-05-10T04:45:43.604Z,1005.65
2016-05-10T04:46:43.591Z,1005.65
2016-05-10T04:47:43.578Z,1005.62
2016-05-10T04:48:43.566Z,1005.63
2016-05-10T04:49:43.553Z,1005.64
2016-05-10T04:50:43.540Z,1005.63
2016-05-10T04:51:43.527Z,1005.68
2016-05-10T04:52:43.513Z,1005.64
2016-05-10T04:53:43.500Z,1005.63
2016-05-10T04:54:43.503Z,1005.63
2016-05-10T04:55:43.475Z,1005.63
2016-05-10T04:56:43.477Z,1005.61
2016-05-10T04:57:43.450Z,1005.63
2016-05-10T04:58:43.452Z,1005.59
2016-05-10T04:59:43.439Z,1005.62
2016-05-10T05:00:43.427Z,1005.61
2016-05-10T05:01:43.413Z,1005.59
2016-05-10T05:02:43.400Z,1005.63
2016-05-10T05:03:43.387Z,1005.66
2016-05-10T05:04:43.374Z,1005.62
2016-05-10T05:05:43.362Z,1005.56
2016-05-10T05:06:43.348Z,1005.57
2016-05-10T05:07:43.351Z,1005.59
2016-05-10T05:08:43.323Z,1005.6
2016-05-10T05:09:43.309Z,1005.54
2016-05-10T05:10:43.313Z,1005.56
2016-05-10T05:11:43.299Z,1005.5
2016-05-10T05:12:43.286Z,1005.57
2016-05-10T05:13:43.274Z,1005.52
2016-05-10T05:14:43.261Z,1005.51
2016-05-10T05:15:43.247Z,1005.56
2016-05-10T05:16:43.235Z,1005.5
2016-05-10T05:17:43.222Z,1005.53
2016-05-10T05:18:43.209Z,1005.49
2016-05-10T05:19:43.195Z,1005.55
2016-05-10T05:20:43.183Z,1005.56
2016-05-10T05:21:43.170Z,1005.54
2016-05-10T05:22:43.172Z,1005.5
2016-05-10T05:23:43.144Z,1005.48
2016-05-10T05:24:43.131Z,1005.47
2016-05-10T05:25:43.275Z,1005.48
2016-05-10T05:26:43.105Z,1005.51
2016-05-10T05:27:43.108Z,1005.48
2016-05-10T05:28:43.094Z,1005.5
2016-05-10T05:29:43.082Z,1005.49
2016-05-10T05:30:43.069Z,1005.45
2016-05-10T05:31:43.056Z,1005.41
2016-05-10T05:32:43.044Z,1005.45
2016-05-10T05:33:43.234Z,1005.43
2016-05-10T05:34:43.018Z,1005.44
2016-05-10T05:35:43.004Z,1005.43
2016-05-10T05:36:42.991Z,1005.42
2016-05-10T05:37:42.994Z,1005.38
2016-05-10T05:38:42.965Z,1005.39
2016-05-10T05:39:42.968Z,1005.34
2016-05-10T05:40:42.940Z,1005.36
2016-05-10T05:41:43.240Z,1005.34
2016-05-10T05:42:42.914Z,1005.37
2016-05-10T05:43:42.917Z,1005.35
2016-05-10T05:44:43.092Z,1005.37
2016-05-10T05:45:42.890Z,1005.3
2016-05-10T05:46:42.878Z,1005.32
2016-05-10T05:47:42.865Z,1005.32
2016-05-10T05:48:42.852Z,1005.3
2016-05-10T05:49:43.293Z,1005.3
2016-05-10T05:50:42.826Z,1005.31
2016-05-10T05:51:42.813Z,1005.33
2016-05-10T05:52:42.800Z,1005.31
2016-05-10T05:53:42.787Z,1005.37
2016-05-10T05:54:42.774Z,1005.3
2016-05-10T05:55:42.777Z,1005.3
2016-05-10T05:56:42.749Z,1005.35
2016-05-10T05:57:43.297Z,1005.33
2016-05-10T05:58:42.722Z,1005.34
2016-05-10T05:59:43.553Z,1005.3
2016-05-10T06:00:42.713Z,1005.36
2016-05-10T06:01:42.699Z,1005.34
2016-05-10T06:02:42.765Z,1005.32
2016-05-10T06:03:42.674Z,1005.35
2016-05-10T06:04:42.661Z,1005.32
2016-05-10T06:05:43.304Z,1005.33
2016-05-10T06:06:42.635Z,1005.34
2016-05-10T06:07:42.622Z,1005.33
2016-05-10T06:08:42.610Z,1005.3
2016-05-10T06:09:42.595Z,1005.24
2016-05-10T06:10:42.582Z,1005.26
2016-05-10T06:11:42.585Z,1005.3
2016-05-10T06:12:42.573Z,1005.19
2016-05-10T06:13:42.545Z,1005.19
2016-05-10T06:14:42.548Z,1005.18
2016-05-10T06:15:42.534Z,1005.23
2016-05-10T06:16:42.520Z,1005.2
2016-05-10T06:17:42.508Z,1005.2
2016-05-10T06:18:42.495Z,1005.16
2016-05-10T06:19:42.482Z,1005.18
2016-05-10T06:20:42.470Z,1005.17
2016-05-10T06:21:42.551Z,1005.18
2016-05-10T06:22:42.444Z,1005.18
2016-05-10T06:23:42.431Z,1005.2
2016-05-10T06:24:42.417Z,1005.21
2016-05-10T06:25:42.405Z,1005.22
2016-05-10T06:26:42.391Z,1005.15
2016-05-10T06:27:42.379Z,1005.2
2016-05-10T06:28:42.381Z,1005.21
2016-05-10T06:29:42.556Z,1005.19
2016-05-10T06:30:42.355Z,1005.27
2016-05-10T06:31:42.344Z,1005.28
2016-05-10T06:32:42.329Z,1005.26
2016-05-10T06:33:42.316Z,1005.29
2016-05-10T06:34:42.304Z,1005.21
2016-05-10T06:35:42.307Z,1005.25
2016-05-10T06:36:42.277Z,1005.2
2016-05-10T06:37:42.625Z,1005.21
2016-05-10T06:38:42.252Z,1005.26
2016-05-10T06:39:42.239Z,1005.21
2016-05-10T06:40:42.226Z,1005.23
2016-05-10T06:41:42.213Z,1005.29
2016-05-10T06:42:42.216Z,1005.12
2016-05-10T06:43:42.204Z,1005.21
2016-05-10T06:44:42.174Z,1005.19
2016-05-10T06:45:42.615Z,1005.15
2016-05-10T06:46:42.180Z,1005.16
2016-05-10T06:47:42.151Z,1005.18
2016-05-10T06:48:42.139Z,1005.13
2016-05-10T06:49:42.126Z,1005.16
2016-05-10T06:50:42.112Z,1005.16
2016-05-10T06:51:42.100Z,1005.17
2016-05-10T06:52:42.087Z,1005.12
2016-05-10T06:53:42.074Z,1005.18
2016-05-10T06:54:42.061Z,1005.15
2016-05-10T06:55:42.047Z,1005.18
2016-05-10T06:56:42.035Z,1005.2
2016-05-10T06:57:42.053Z,1005.22
2016-05-10T06:58:42.025Z,1005.18
2016-05-10T06:59:43.183Z,1005.16
2016-05-10T07:00:41.999Z,1005.09
2016-05-10T07:01:41.985Z,1005.15
2016-05-10T07:02:41.973Z,1005.11
2016-05-10T07:03:41.960Z,1005.14
2016-05-10T07:04:41.947Z,1005.1
2016-05-10T07:05:41.934Z,1005.08
2016-05-10T07:06:41.921Z,1005.11
2016-05-10T07:07:41.924Z,1005.13
2016-05-10T07:08:41.895Z,1005.12
2016-05-10T07:09:41.883Z,1005.08
2016-05-10T07:10:41.885Z,1005.16
2016-05-10T07:11:41.871Z,1005.09
2016-05-10T07:12:41.859Z,1005.17
2016-05-10T07:13:41.846Z,1005.18
2016-05-10T07:14:41.834Z,1005.15
2016-05-10T07:15:41.821Z,1005.16
2016-05-10T07:16:41.807Z,1005.1
2016-05-10T07:17:41.795Z,1005.16
2016-05-10T07:18:41.781Z,1005.13
2016-05-10T07:19:41.769Z,1005.11
2016-05-10T07:20:41.771Z,1005.12
2016-05-10T07:21:41.742Z,1005.07
2016-05-10T07:22:41.745Z,1005.16
2016-05-10T07:23:41.733Z,1005.11
2016-05-10T07:24:41.720Z,1005.14
2016-05-10T07:25:41.707Z,1005.08
2016-05-10T07:26:41.694Z,1005.07
2016-05-10T07:27:41.681Z,1005.14
2016-05-10T07:28:41.667Z,1005.09
2016-05-10T07:29:41.655Z,1005.02
2016-05-10T07:30:41.657Z,1005.09
2016-05-10T07:31:41.629Z,1005.06
2016-05-10T07:32:41.616Z,1005.12
2016-05-10T07:33:41.603Z,1005.08
2016-05-10T07:34:41.591Z,1005.09
2016-05-10T07:35:41.577Z,1005.09
2016-05-10T07:36:41.580Z,1005.06
2016-05-10T07:37:41.566Z,1005.09
2016-05-10T07:38:41.554Z,1005.05
2016-05-10T07:39:41.541Z,1005
2016-05-10T07:40:41.528Z,1005.09
2016-05-10T07:41:41.515Z,1005.06
2016-05-10T07:42:41.502Z,1005.05
2016-05-10T07:43:41.490Z,1005.04
2016-05-10T07:44:41.852Z,1005.02
2016-05-10T07:45:41.479Z,1005.03
2016-05-10T07:46:41.466Z,1005.01
2016-05-10T07:47:41.453Z,1005.03
2016-05-10T07:48:41.487Z,1005.01
2016-05-10T07:49:41.412Z,1005.04
2016-05-10T07:50:41.556Z,1004.99
2016-05-10T07:51:41.401Z,1005.04
2016-05-10T07:52:41.389Z,1005.01
2016-05-10T07:53:41.376Z,1005.02
2016-05-10T07:54:41.363Z,1004.99
2016-05-10T07:55:41.365Z,1005.01
2016-05-10T07:56:41.337Z,1005.06
2016-05-10T07:57:41.339Z,1005.01
2016-05-10T07:58:41.311Z,1005.03
2016-05-10T07:59:41.298Z,1004.99
2016-05-10T08:00:41.300Z,1005
2016-05-10T08:01:41.288Z,1005.04
2016-05-10T08:02:41.275Z,1005
2016-05-10T08:03:41.261Z,1004.98
2016-05-10T08:04:41.249Z,1004.99
2016-05-10T08:05:41.236Z,1005.02
2016-05-10T08:06:41.224Z,1005
2016-05-10T08:07:41.210Z,1004.97
2016-05-10T08:08:41.197Z,1004.98
2016-05-10T08:09:41.185Z,1004.93
2016-05-10T08:10:41.171Z,1004.93
2016-05-10T08:11:41.158Z,1004.94
2016-05-10T08:12:41.146Z,1004.94
2016-05-10T08:13:41.148Z,1004.96
2016-05-10T08:14:41.245Z,1004.97
2016-05-10T08:15:41.123Z,1004.94
2016-05-10T08:16:41.109Z,1004.95
2016-05-10T08:17:41.096Z,1004.88
2016-05-10T08:18:41.084Z,1004.92
2016-05-10T08:19:41.071Z,1004.89
2016-05-10T08:20:41.057Z,1004.98
2016-05-10T08:21:41.045Z,1004.97
2016-05-10T08:22:41.032Z,1004.97
2016-05-10T08:23:41.020Z,1004.96
2016-05-10T08:24:41.006Z,1004.96
2016-05-10T08:25:41.008Z,1004.93
2016-05-10T08:26:41.042Z,1004.89
2016-05-10T08:27:40.983Z,1004.9
2016-05-10T08:28:40.970Z,1004.86
2016-05-10T08:29:42.456Z,1004.91
2016-05-10T08:30:41.116Z,1004.98
2016-05-10T08:31:40.947Z,1004.92
2016-05-10T08:32:40.918Z,1004.93
2016-05-10T08:33:40.906Z,1004.86
2016-05-10T08:34:40.892Z,1004.85
2016-05-10T08:35:40.894Z,1004.87
2016-05-10T08:36:40.882Z,1004.9
2016-05-10T08:37:40.869Z,1004.95
2016-05-10T08:38:40.855Z,1004.84
2016-05-10T08:39:40.843Z,1004.86
2016-05-10T08:40:40.830Z,1004.92
2016-05-10T08:41:40.817Z,1004.89
2016-05-10T08:42:40.804Z,1004.87
2016-05-10T08:43:40.791Z,1004.85
2016-05-10T08:44:40.779Z,1004.91
2016-05-10T08:45:40.765Z,1004.9
2016-05-10T08:46:40.752Z,1004.88
2016-05-10T08:47:40.740Z,1004.82
2016-05-10T08:48:40.727Z,1004.85
2016-05-10T08:49:40.729Z,1004.87
2016-05-10T08:50:40.717Z,1004.85
2016-05-10T08:51:40.704Z,1004.83
2016-05-10T08:52:40.691Z,1004.86
2016-05-10T08:53:40.678Z,1004.8
2016-05-10T08:54:40.665Z,1004.82
2016-05-10T08:55:40.652Z,1004.81
2016-05-10T08:56:40.639Z,1004.86
2016-05-10T08:57:40.626Z,1004.84
2016-05-10T08:58:40.613Z,1004.88
2016-05-10T08:59:40.850Z,1004.81
2016-05-10T09:00:40.603Z,1004.78
2016-05-10T09:01:40.589Z,1004.82
2016-05-10T09:02:40.561Z,1004.73
2016-05-10T09:03:40.563Z,1004.74
2016-05-10T09:04:40.550Z,1004.81
2016-05-10T09:05:40.539Z,1004.74
2016-05-10T09:06:40.525Z,1004.79
2016-05-10T09:07:40.513Z,1004.76
2016-05-10T09:08:40.500Z,1004.79
2016-05-10T09:09:40.486Z,1004.71
2016-05-10T09:10:40.474Z,1004.73
2016-05-10T09:11:40.477Z,1004.68
2016-05-10T09:12:40.463Z,1004.68
2016-05-10T09:13:40.450Z,1004.78
2016-05-10T09:14:40.438Z,1004.71
2016-05-10T09:15:40.424Z,1004.65
2016-05-10T09:16:40.412Z,1004.71
2016-05-10T09:17:40.399Z,1004.65
2016-05-10T09:18:40.422Z,1004.66
2016-05-10T09:19:40.452Z,1004.67
2016-05-10T09:20:40.480Z,1004.72
2016-05-10T09:21:40.508Z,1004.75
2016-05-10T09:22:40.537Z,1004.74
2016-05-10T09:23:40.557Z,1004.71
2016-05-10T09:24:40.590Z,1004.72
2016-05-10T09:25:40.562Z,1004.69
2016-05-10T09:26:40.564Z,1004.66
2016-05-10T09:27:40.565Z,1004.68
2016-05-10T09:28:40.559Z,1004.7
2016-05-10T09:29:40.552Z,1004.69
2016-05-10T09:30:40.543Z,1004.63
2016-05-10T09:31:40.537Z,1004.65
2016-05-10T09:32:40.528Z,1004.58
2016-05-10T09:33:40.519Z,1004.67
2016-05-10T09:34:40.507Z,1004.6
2016-05-10T09:35:40.511Z,1004.66
2016-05-10T09:36:40.500Z,1004.69
2016-05-10T09:37:40.490Z,1004.62
2016-05-10T09:38:40.477Z,1004.58
2016-05-10T09:39:40.465Z,1004.66
2016-05-10T09:40:40.453Z,1004.66
2016-05-10T09:41:40.441Z,1004.71
2016-05-10T09:42:40.430Z,1004.63
2016-05-10T09:43:40.416Z,1004.68
2016-05-10T09:44:40.420Z,1004.62
2016-05-10T09:45:40.391Z,1004.61
2016-05-10T09:46:40.379Z,1004.6
2016-05-10T09:47:40.366Z,1004.67
2016-05-10T09:48:40.368Z,1004.6
2016-05-10T09:49:40.356Z,1004.66
2016-05-10T09:50:40.342Z,1004.62
2016-05-10T09:51:40.330Z,1004.61
2016-05-10T09:52:40.317Z,1004.59
2016-05-10T09:53:40.304Z,1004.63
2016-05-10T09:54:40.291Z,1004.63
2016-05-10T09:55:40.278Z,1004.61
2016-05-10T09:56:40.265Z,1004.6
2016-05-10T09:57:40.252Z,1004.6
2016-05-10T09:58:40.256Z,1004.55
2016-05-10T09:59:40.602Z,1004.6
2016-05-10T10:00:40.230Z,1004.6
2016-05-10T10:01:40.216Z,1004.52
2016-05-10T10:02:40.203Z,1004.47
2016-05-10T10:03:40.191Z,1004.59
2016-05-10T10:04:40.177Z,1004.55
2016-05-10T10:05:40.164Z,1004.57
2016-05-10T10:06:40.167Z,1004.59
2016-05-10T10:07:40.138Z,1004.63
2016-05-10T10:08:40.127Z,1004.56
2016-05-10T10:09:40.113Z,1004.61
2016-05-10T10:10:40.100Z,1004.55
2016-05-10T10:11:40.103Z,1004.56
2016-05-10T10:12:40.090Z,1004.57
2016-05-10T10:13:40.077Z,1004.5
2016-05-10T10:14:40.392Z,1004.56
2016-05-10T10:15:40.051Z,1004.52
2016-05-10T10:16:40.035Z,1004.52
2016-05-10T10:17:40.023Z,1004.49
2016-05-10T10:18:40.009Z,1004.54
2016-05-10T10:19:40.012Z,1004.5
2016-05-10T10:20:39.998Z,1004.47
2016-05-10T10:21:39.987Z,1004.53
2016-05-10T10:22:39.973Z,1004.57
2016-05-10T10:23:39.960Z,1004.56
2016-05-10T10:24:39.947Z,1004.54
2016-05-10T10:25:39.935Z,1004.61
2016-05-10T10:26:39.922Z,1004.53
2016-05-10T10:27:39.925Z,1004.52
2016-05-10T10:28:39.896Z,1004.56
2016-05-10T10:29:40.242Z,1004.56
2016-05-10T10:30:39.870Z,1004.51
2016-05-10T10:31:39.872Z,1004.53
2016-05-10T10:32:39.859Z,1004.5
2016-05-10T10:33:39.847Z,1004.47
2016-05-10T10:34:39.833Z,1004.41
2016-05-10T10:35:39.821Z,1004.47
2016-05-10T10:36:39.902Z,1004.44
2016-05-10T10:37:39.794Z,1004.48
2016-05-10T10:38:39.782Z,1004.45
2016-05-10T10:39:39.769Z,1004.4
2016-05-10T10:40:39.755Z,1004.41
2016-05-10T10:41:39.744Z,1004.34
2016-05-10T10:42:39.746Z,1004.34
2016-05-10T10:43:39.733Z,1004.49
2016-05-10T10:44:40.580Z,1004.37
2016-05-10T10:45:39.707Z,1004.4
2016-05-10T10:46:39.694Z,1004.32
2016-05-10T10:47:39.713Z,1004.35
2016-05-10T10:48:39.668Z,1004.37
2016-05-10T10:49:39.654Z,1004.37
2016-05-10T10:50:39.643Z,1004.35
2016-05-10T10:51:39.630Z,1004.37
2016-05-10T10:52:39.929Z,1004.36
2016-05-10T10:53:39.604Z,1004.34
2016-05-10T10:54:39.590Z,1004.41
2016-05-10T10:55:39.593Z,1004.38
2016-05-10T10:56:39.580Z,1004.35
2016-05-10T10:57:39.567Z,1004.36
2016-05-10T10:58:39.554Z,1004.38
2016-05-10T10:59:39.542Z,1004.39
2016-05-10T11:00:39.935Z,1004.41
2016-05-10T11:01:39.516Z,1004.36
2016-05-10T11:02:39.503Z,1004.37
2016-05-10T11:03:39.490Z,1004.36
2016-05-10T11:04:39.478Z,1004.32
2016-05-10T11:05:39.480Z,1004.31
2016-05-10T11:06:39.467Z,1004.33
2016-05-10T11:07:39.453Z,1004.33
2016-05-10T11:08:39.941Z,1004.3
2016-05-10T11:09:39.427Z,1004.29
2016-05-10T11:10:39.430Z,1004.25
2016-05-10T11:11:39.449Z,1004.29
2016-05-10T11:12:39.389Z,1004.28
2016-05-10T11:13:39.376Z,1004.35
2016-05-10T11:14:39.457Z,1004.23
2016-05-10T11:15:39.350Z,1004.38
2016-05-10T11:16:39.946Z,1004.35
2016-05-10T11:17:39.324Z,1004.3
2016-05-10T11:18:39.327Z,1004.28
2016-05-10T11:19:39.315Z,1004.28
2016-05-10T11:20:39.301Z,1004.28
2016-05-10T11:21:39.288Z,1004.22
2016-05-10T11:22:39.276Z,1004.35
2016-05-10T11:23:39.263Z,1004.31
2016-05-10T11:24:40.109Z,1004.22
2016-05-10T11:25:39.237Z,1004.2
2016-05-10T11:26:39.224Z,1004.18
2016-05-10T11:27:39.226Z,1004.24
2016-05-10T11:28:39.214Z,1004.22
2016-05-10T11:29:39.201Z,1004.19
2016-05-10T11:30:39.187Z,1004.18
2016-05-10T11:31:39.175Z,1004.21
2016-05-10T11:32:39.255Z,1004.15
2016-05-10T11:33:39.148Z,1004.12
2016-05-10T11:34:39.135Z,1004.15
2016-05-10T11:35:39.122Z,1004.19
2016-05-10T11:36:39.110Z,1004.16
2016-05-10T11:37:39.097Z,1004.16
2016-05-10T11:38:39.083Z,1004.17
2016-05-10T11:39:39.086Z,1004.1
2016-05-10T11:40:39.230Z,1004.2
2016-05-10T11:41:39.061Z,1004.17
2016-05-10T11:42:39.048Z,1004.18
2016-05-10T11:43:39.035Z,1004.11
2016-05-10T11:44:39.021Z,1004.13
2016-05-10T11:45:39.025Z,1004.09
2016-05-10T11:46:38.997Z,1004.12
2016-05-10T11:47:38.983Z,1004.05
2016-05-10T11:48:39.283Z,1004.07
2016-05-10T11:49:38.957Z,1004.03
2016-05-10T11:50:38.960Z,1004
2016-05-10T11:51:38.947Z,1004.01
2016-05-10T11:52:38.934Z,1004.03
2016-05-10T11:53:38.921Z,1004.08
2016-05-10T11:54:38.909Z,1004.07
2016-05-10T11:55:38.895Z,1004.03
2016-05-10T11:56:39.289Z,1004.03
2016-05-10T11:57:38.870Z,1004.02
2016-05-10T11:58:38.872Z,1004.03
2016-05-10T11:59:38.859Z,1004.01
2016-05-10T12:00:38.862Z,1003.96
2016-05-10T12:01:38.817Z,1004.01
2016-05-10T12:02:38.820Z,1003.98
2016-05-10T12:03:38.807Z,1003.95
2016-05-10T12:04:40.091Z,1003.92
2016-05-10T12:05:38.781Z,1003.97
2016-05-10T12:06:38.769Z,1003.89
2016-05-10T12:07:38.756Z,1003.93
2016-05-10T12:08:38.742Z,1003.85